createdAt,value
2022-10-18T00:00:36.272Z,0.55
2022-10-18T00:03:22.430Z,0.30
2022-10-18T00:06:09.340Z,0.40
2022-10-18T00:08:55.293Z,0.40
2022-10-18T00:11:41.290Z,0.40
2022-10-18T00:14:26.977Z,0.30
2022-10-18T00:17:12.747Z,0.30
2022-10-18T00:19:58.455Z,0.30
2022-10-18T00:22:44.211Z,0.40
2022-10-18T00:25:29.889Z,0.30
2022-10-18T00:28:15.625Z,0.30
2022-10-18T00:31:24.360Z,0.30
2022-10-18T00:34:13.276Z,0.30
2022-10-18T00:36:59.122Z,0.30
2022-10-18T00:39:44.975Z,0.30
2022-10-18T00:42:33.830Z,0.30
2022-10-18T00:45:24.321Z,0.30
2022-10-18T00:48:11.025Z,0.38
2022-10-18T00:50:57.040Z,0.20
2022-10-18T00:53:42.830Z,0.25
2022-10-18T00:56:28.893Z,0.22
2022-10-18T00:59:16.096Z,0.30
2022-10-18T01:02:02.170Z,0.30
2022-10-18T01:04:48.837Z,0.30
2022-10-18T01:07:53.670Z,0.30
2022-10-18T01:11:07.980Z,0.30
2022-10-18T01:14:05.716Z,0.30
2022-10-18T01:17:18.509Z,0.20
2022-10-18T01:20:30.305Z,0.30
2022-10-18T01:23:36.158Z,0.25
2022-10-18T01:26:38.681Z,0.30
2022-10-18T01:30:01.145Z,0.20
2022-10-18T01:32:50.644Z,0.30
2022-10-18T01:35:40.877Z,0.20
2022-10-18T01:38:28.083Z,0.20
2022-10-18T01:41:15.902Z,0.22
2022-10-18T01:44:03.653Z,0.20
2022-10-18T01:46:51.075Z,0.35
2022-10-18T01:49:36.813Z,0.30
2022-10-18T01:52:22.635Z,0.30
2022-10-18T01:55:08.616Z,0.30
2022-10-18T01:58:03.806Z,0.30
2022-10-18T02:00:55.789Z,0.22
2022-10-18T02:03:46.617Z,0.30
2022-10-18T02:06:36.826Z,0.30
2022-10-18T02:09:32.045Z,0.40
2022-10-18T02:12:18.984Z,0.30
2022-10-18T02:15:05.682Z,0.30
2022-10-18T02:17:52.175Z,0.30
2022-10-18T02:20:38.634Z,0.40
2022-10-18T02:23:25.844Z,0.30
2022-10-18T02:26:11.924Z,0.30
2022-10-18T02:28:57.733Z,0.30
2022-10-18T02:31:49.164Z,0.30
2022-10-18T02:34:41.909Z,0.30
2022-10-18T02:37:32.577Z,0.30
2022-10-18T02:40:18.862Z,0.30
2022-10-18T02:43:06.231Z,0.30
2022-10-18T02:45:52.143Z,0.30
2022-10-18T02:48:37.852Z,0.30
2022-10-18T02:51:23.928Z,0.22
2022-10-18T02:54:10.002Z,0.20
2022-10-18T02:56:55.909Z,0.30
2022-10-18T02:59:41.780Z,0.28
2022-10-18T03:02:27.707Z,0.40
2022-10-18T03:05:13.596Z,0.30
2022-10-18T03:07:59.282Z,0.20
2022-10-18T03:10:46.065Z,0.20
2022-10-18T03:13:34.291Z,0.20
2022-10-18T03:16:20.261Z,0.20
2022-10-18T03:19:05.984Z,0.38
2022-10-18T03:21:51.764Z,0.30
2022-10-18T03:24:38.017Z,0.20
2022-10-18T03:27:24.245Z,0.20
2022-10-18T03:30:11.869Z,0.20
2022-10-18T03:32:58.157Z,0.20
2022-10-18T03:35:43.952Z,0.20
2022-10-18T03:38:29.821Z,0.22
2022-10-18T03:41:15.603Z,0.25
2022-10-18T03:44:01.332Z,0.30
2022-10-18T03:46:47.196Z,0.20
2022-10-18T03:52:24.036Z,0.20
2022-10-18T03:55:09.862Z,0.20
2022-10-18T03:57:55.533Z,0.20
2022-10-18T04:00:41.181Z,0.30
2022-10-18T04:03:27.104Z,0.20
2022-10-18T04:06:13.363Z,0.20
2022-10-18T04:08:59.309Z,0.20
2022-10-18T04:11:45.175Z,0.30
2022-10-18T04:14:30.935Z,0.20
2022-10-18T04:17:16.653Z,0.20
2022-10-18T04:20:02.366Z,0.30
2022-10-18T04:22:48.658Z,0.30
2022-10-18T04:25:34.325Z,0.30
2022-10-18T04:28:20.213Z,0.20
2022-10-18T04:31:06.601Z,0.28
2022-10-18T04:33:52.315Z,0.20
2022-10-18T04:36:38.086Z,0.35
2022-10-18T04:39:23.676Z,0.38
2022-10-18T04:42:09.518Z,0.30
2022-10-18T04:44:55.238Z,0.30
2022-10-18T04:47:40.916Z,0.30
2022-10-18T04:50:26.789Z,0.30
2022-10-18T04:53:12.615Z,0.30
2022-10-18T04:55:58.371Z,0.30
2022-10-18T04:58:44.201Z,0.20
2022-10-18T05:01:29.876Z,0.32
2022-10-18T05:04:15.757Z,0.30
2022-10-18T05:07:02.837Z,0.28
2022-10-18T05:09:48.582Z,0.30
2022-10-18T05:12:34.745Z,0.35
2022-10-18T05:15:21.113Z,0.40
2022-10-18T05:18:06.854Z,0.22
2022-10-18T05:20:52.771Z,0.40
2022-10-18T05:23:38.963Z,0.30
2022-10-18T05:26:27.860Z,0.30
2022-10-18T05:29:15.554Z,0.30
2022-10-18T05:32:03.459Z,0.30
2022-10-18T05:34:49.329Z,0.30
2022-10-18T05:37:35.087Z,0.30
2022-10-18T05:40:20.705Z,0.30
2022-10-18T05:43:06.353Z,0.40
2022-10-18T05:45:56.240Z,0.20
2022-10-18T05:48:44.395Z,0.30
2022-10-18T05:51:30.430Z,0.30
2022-10-18T05:54:16.362Z,0.28
2022-10-18T05:57:02.181Z,0.30
2022-10-18T05:59:47.818Z,0.25
2022-10-18T06:02:33.617Z,0.20
2022-10-18T06:05:19.528Z,0.30
2022-10-18T06:08:07.997Z,0.30
2022-10-18T06:10:56.302Z,0.30
2022-10-18T06:13:46.822Z,0.30
2022-10-18T06:16:32.911Z,2.00
2022-10-18T06:19:18.922Z,1.13
2022-10-18T06:22:05.164Z,1.10
2022-10-18T06:24:56.442Z,0.90
2022-10-18T06:27:43.281Z,0.77
2022-10-18T06:30:29.203Z,0.60
2022-10-18T06:33:15.061Z,0.60
2022-10-18T06:36:03.363Z,0.50
2022-10-18T06:38:49.791Z,0.60
2022-10-18T06:41:35.808Z,0.50
2022-10-18T06:44:37.790Z,0.43
2022-10-18T06:47:23.929Z,0.40
2022-10-18T06:50:11.587Z,0.50
2022-10-18T06:52:57.750Z,0.50
2022-10-18T06:55:43.656Z,0.40
2022-10-18T06:58:30.434Z,0.30
2022-10-18T07:01:17.578Z,0.38
2022-10-18T07:04:03.753Z,0.40
2022-10-18T07:06:49.626Z,0.30
2022-10-18T07:09:36.052Z,0.30
2022-10-18T07:12:22.145Z,0.38
2022-10-18T07:15:09.530Z,0.30
2022-10-18T07:17:55.743Z,0.30
2022-10-18T07:20:41.473Z,0.30
2022-10-18T07:23:27.083Z,0.40
2022-10-18T07:26:17.335Z,0.45
2022-10-18T07:29:12.177Z,0.30
2022-10-18T07:31:58.258Z,0.30
2022-10-18T07:34:44.233Z,0.30
2022-10-18T07:37:30.544Z,0.30
2022-10-18T07:40:16.815Z,0.38
2022-10-18T07:43:04.683Z,0.20
2022-10-18T07:46:00.134Z,0.30
2022-10-18T07:48:46.046Z,0.20
2022-10-18T07:51:32.912Z,0.20
2022-10-18T07:54:18.713Z,0.30
2022-10-18T07:57:05.083Z,0.30
2022-10-18T07:59:56.400Z,0.20
2022-10-18T08:02:42.229Z,0.20
2022-10-18T08:05:28.953Z,0.30
2022-10-18T08:08:14.685Z,0.30
2022-10-18T08:11:05.718Z,0.30
2022-10-18T08:13:53.124Z,0.52
2022-10-18T08:16:39.095Z,0.40
2022-10-18T08:19:24.699Z,0.40
2022-10-18T08:22:10.407Z,0.45
2022-10-18T08:24:56.021Z,0.52
2022-10-18T08:27:41.777Z,0.60
2022-10-18T08:30:27.734Z,0.40
2022-10-18T08:33:14.859Z,0.60
2022-10-18T08:36:02.630Z,0.50
2022-10-18T08:38:49.410Z,0.63
2022-10-18T08:41:38.123Z,0.50
2022-10-18T08:44:29.835Z,0.60
2022-10-18T08:47:20.723Z,0.65
2022-10-18T08:50:12.623Z,0.55
2022-10-18T08:53:03.531Z,0.75
2022-10-18T08:55:52.756Z,0.65
2022-10-18T08:58:38.976Z,1.90
2022-10-18T09:01:52.919Z,0.60
2022-10-18T09:05:10.323Z,0.50
2022-10-18T09:08:38.869Z,0.50
2022-10-18T09:11:49.293Z,0.55
2022-10-18T09:14:47.316Z,0.63
2022-10-18T09:18:03.425Z,0.50
2022-10-18T09:20:59.409Z,0.40
2022-10-18T09:23:49.581Z,0.63
2022-10-18T09:26:46.538Z,0.80
2022-10-18T09:29:52.226Z,0.90
2022-10-18T09:32:56.467Z,0.82
2022-10-18T09:36:01.683Z,0.60
2022-10-18T09:38:58.640Z,0.80
2022-10-18T09:41:57.682Z,0.70
2022-10-18T09:45:06.715Z,0.45
2022-10-18T09:48:17.505Z,0.40
2022-10-18T09:51:17.671Z,0.50
2022-10-18T09:54:26.768Z,0.50
2022-10-18T09:57:20.958Z,0.50
2022-10-18T10:00:15.910Z,0.55
2022-10-18T10:03:02.006Z,0.50
2022-10-18T10:06:02.447Z,0.45
2022-10-18T10:08:50.367Z,0.57
2022-10-18T10:11:45.413Z,0.40
2022-10-18T10:14:43.622Z,0.50
2022-10-18T10:17:31.321Z,0.70
2022-10-18T10:20:25.827Z,0.50
2022-10-18T10:23:25.944Z,0.68
2022-10-18T10:26:25.390Z,0.70
2022-10-18T10:29:57.683Z,0.70
2022-10-18T10:32:51.455Z,0.70
2022-10-18T10:35:53.033Z,0.73
2022-10-18T10:38:39.953Z,0.85
2022-10-18T10:41:25.666Z,0.65
2022-10-18T10:44:19.318Z,0.80
2022-10-18T10:47:06.356Z,0.80
2022-10-18T10:49:52.295Z,0.80
2022-10-18T10:52:40.443Z,1.10
2022-10-18T10:55:35.572Z,1.10
2022-10-18T10:58:21.982Z,1.00
2022-10-18T11:01:18.865Z,0.88
2022-10-18T11:04:24.933Z,0.73
2022-10-18T11:07:26.102Z,0.88
2022-10-18T11:10:12.424Z,0.80
2022-10-18T11:13:35.930Z,1.10
2022-10-18T11:16:35.752Z,0.93
2022-10-18T11:19:56.744Z,0.90
2022-10-18T11:22:47.608Z,0.80
2022-10-18T11:26:10.778Z,0.80
2022-10-18T11:29:06.042Z,1.10
2022-10-18T11:32:07.037Z,1.08
2022-10-18T11:34:52.769Z,1.30
2022-10-18T11:38:12.357Z,1.10
2022-10-18T11:41:04.102Z,0.82
2022-10-18T11:44:04.468Z,0.90
2022-10-18T11:47:31.938Z,0.80
2022-10-18T11:50:34.493Z,0.88
2022-10-18T11:53:38.489Z,0.82
2022-10-18T11:56:29.495Z,0.70
2022-10-18T11:59:28.872Z,0.80
2022-10-18T12:02:49.716Z,0.90
2022-10-18T12:05:38.709Z,0.65
2022-10-18T12:08:39.179Z,1.15
2022-10-18T12:11:32.990Z,0.93
2022-10-18T12:14:36.514Z,1.00
2022-10-18T12:17:49.883Z,1.10
2022-10-18T12:23:29.240Z,0.73
2022-10-18T12:26:15.305Z,0.70
2022-10-18T12:29:18.397Z,0.80
2022-10-18T12:32:13.489Z,1.10
2022-10-18T12:35:04.226Z,0.70
2022-10-18T12:38:18.182Z,1.08
2022-10-18T12:43:55.341Z,0.73
2022-10-18T12:46:49.472Z,0.70
2022-10-18T12:49:42.593Z,0.70
2022-10-18T12:52:33.872Z,0.82
2022-10-18T12:55:19.860Z,0.90
2022-10-18T12:58:21.841Z,0.60
2022-10-18T13:01:08.085Z,0.75
2022-10-18T13:03:57.004Z,0.63
2022-10-18T13:06:58.555Z,0.80
2022-10-18T13:10:15.021Z,0.80
2022-10-18T13:13:39.155Z,0.60
2022-10-18T13:16:44.135Z,0.60
2022-10-18T13:20:07.792Z,0.68
2022-10-18T13:23:05.846Z,0.60
2022-10-18T13:26:16.640Z,0.70
2022-10-18T13:29:35.881Z,0.50
2022-10-18T13:32:54.107Z,0.90
2022-10-18T13:35:52.252Z,1.17
2022-10-18T13:38:44.874Z,1.40
2022-10-18T13:41:55.106Z,1.13
2022-10-18T13:44:44.831Z,1.00
2022-10-18T13:47:36.195Z,1.15
2022-10-18T13:50:31.368Z,1.08
2022-10-18T13:53:34.564Z,1.10
2022-10-18T13:56:45.868Z,1.55
2022-10-18T13:59:51.011Z,1.58
2022-10-18T14:02:51.533Z,1.40
2022-10-18T14:05:46.092Z,1.60
2022-10-18T14:11:46.196Z,2.05
2022-10-18T14:14:44.426Z,2.50
2022-10-18T14:17:44.412Z,2.15
2022-10-18T14:20:49.045Z,2.20
2022-10-18T14:23:40.518Z,2.00
2022-10-18T14:26:29.359Z,1.60
2022-10-18T14:29:22.829Z,1.10
2022-10-18T14:32:15.687Z,1.30
2022-10-18T14:35:30.451Z,1.20
2022-10-18T14:38:14.065Z,1.20
2022-10-18T14:41:23.174Z,0.95
2022-10-18T14:44:22.098Z,1.00
2022-10-18T14:47:30.353Z,1.48
2022-10-18T14:50:30.395Z,1.25
2022-10-18T14:53:22.049Z,0.80
2022-10-18T14:56:08.631Z,1.00
2022-10-18T14:58:55.825Z,0.70
2022-10-18T15:01:51.875Z,0.70
2022-10-18T15:04:38.003Z,0.80
2022-10-18T15:07:25.010Z,1.00
2022-10-18T15:10:22.696Z,1.00
2022-10-18T15:13:10.241Z,0.70
2022-10-18T15:15:57.587Z,0.63
2022-10-18T15:18:43.397Z,0.60
2022-10-18T15:21:29.343Z,0.77
2022-10-18T15:24:29.468Z,0.60
2022-10-18T15:27:31.581Z,0.50
2022-10-18T15:30:28.026Z,0.68
2022-10-18T15:33:23.011Z,0.52
2022-10-18T15:36:27.124Z,0.77
2022-10-18T15:39:21.386Z,0.50
2022-10-18T15:42:27.106Z,0.60
2022-10-18T15:45:34.462Z,0.60
2022-10-18T15:48:22.162Z,0.40
2022-10-18T15:51:48.910Z,0.45
2022-10-18T15:54:34.674Z,0.40
2022-10-18T15:57:20.816Z,0.30
2022-10-18T16:00:08.437Z,0.57
2022-10-18T16:03:01.420Z,0.43
2022-10-18T16:05:47.083Z,0.40
2022-10-18T16:08:40.515Z,0.47
2022-10-18T16:11:26.727Z,0.45
2022-10-18T16:14:14.013Z,0.50
2022-10-18T16:17:03.010Z,0.45
2022-10-18T16:19:48.764Z,0.50
2022-10-18T16:22:37.103Z,0.40
2022-10-18T16:25:23.088Z,0.50
2022-10-18T16:28:20.488Z,0.40
2022-10-18T16:31:06.728Z,0.40
2022-10-18T16:33:53.842Z,0.50
2022-10-18T16:36:39.907Z,0.35
2022-10-18T16:39:25.852Z,0.50
2022-10-18T16:42:12.709Z,0.50
2022-10-18T16:44:59.488Z,0.60
2022-10-18T16:47:45.610Z,0.40
2022-10-18T16:50:34.685Z,0.50
2022-10-18T16:53:23.908Z,0.40
2022-10-18T16:56:18.263Z,0.40
2022-10-18T16:59:04.839Z,0.40
2022-10-18T17:01:50.937Z,0.43
2022-10-18T17:04:36.865Z,0.40
2022-10-18T17:07:24.666Z,0.45
2022-10-18T17:10:18.337Z,0.35
2022-10-18T17:15:50.859Z,0.45
2022-10-18T17:18:37.383Z,0.40
2022-10-18T17:21:24.767Z,0.38
2022-10-18T17:24:12.669Z,0.35
2022-10-18T17:26:58.611Z,0.50
2022-10-18T17:29:44.328Z,0.40
2022-10-18T17:32:30.268Z,0.30
2022-10-18T17:35:16.707Z,0.50
2022-10-18T17:38:07.004Z,0.40
2022-10-18T17:40:53.470Z,0.50
2022-10-18T17:46:32.024Z,0.50
2022-10-18T17:49:18.297Z,0.50
2022-10-18T17:52:07.015Z,0.50
2022-10-18T17:54:53.015Z,0.80
2022-10-18T17:57:40.500Z,0.60
2022-10-18T18:00:26.973Z,0.70
2022-10-18T18:03:13.607Z,0.63
2022-10-18T18:05:59.605Z,0.95
2022-10-18T18:08:45.776Z,0.70
2022-10-18T18:11:31.772Z,0.75
2022-10-18T18:14:18.295Z,0.73
2022-10-18T18:17:04.105Z,0.80
2022-10-18T18:19:50.130Z,0.65
2022-10-18T18:22:40.370Z,0.80
2022-10-18T18:25:28.875Z,0.60
2022-10-18T18:28:14.643Z,0.65
2022-10-18T18:31:08.243Z,0.60
2022-10-18T18:33:56.507Z,0.70
2022-10-18T18:36:43.059Z,0.43
2022-10-18T18:39:35.686Z,0.70
2022-10-18T18:42:22.635Z,0.60
2022-10-18T18:45:08.714Z,0.52
2022-10-18T18:47:54.829Z,0.60
2022-10-18T18:50:41.078Z,0.52
2022-10-18T18:53:29.514Z,0.80
2022-10-18T18:56:26.752Z,0.60
2022-10-18T18:59:14.385Z,0.50
2022-10-18T19:02:00.455Z,0.70
2022-10-18T19:04:46.262Z,0.50
2022-10-18T19:07:32.508Z,0.57
2022-10-18T19:10:18.568Z,0.60
2022-10-18T19:13:04.362Z,0.50
2022-10-18T19:15:50.159Z,0.50
2022-10-18T19:18:36.216Z,0.60
2022-10-18T19:21:23.720Z,0.50
2022-10-18T19:24:09.933Z,0.55
2022-10-18T19:26:58.643Z,0.60
2022-10-18T19:29:46.114Z,0.65
2022-10-18T19:32:32.120Z,0.60
2022-10-18T19:35:18.580Z,0.70
2022-10-18T19:38:04.565Z,0.73
2022-10-18T19:40:53.759Z,0.65
2022-10-18T19:43:40.167Z,0.70
2022-10-18T19:46:26.623Z,0.77
2022-10-18T19:49:12.491Z,0.50
2022-10-18T19:51:58.973Z,0.40
2022-10-18T19:54:45.193Z,0.40
2022-10-18T19:57:31.060Z,0.50
2022-10-18T20:00:19.439Z,0.65
2022-10-18T20:03:05.853Z,0.60
2022-10-18T20:05:59.434Z,0.47
2022-10-18T20:08:45.150Z,0.60
2022-10-18T20:11:31.189Z,0.40
2022-10-18T20:14:17.158Z,0.50
2022-10-18T20:17:02.966Z,0.60
2022-10-18T20:19:49.096Z,0.60
2022-10-18T20:22:35.081Z,0.40
2022-10-18T20:25:21.350Z,0.38
2022-10-18T20:28:07.593Z,0.47
2022-10-18T20:31:07.430Z,0.50
2022-10-18T20:34:01.524Z,0.50
2022-10-18T20:39:34.175Z,0.52
2022-10-18T20:42:19.945Z,0.50
2022-10-18T20:45:07.486Z,0.50
2022-10-18T20:47:53.225Z,0.52
2022-10-18T20:50:42.374Z,0.40
2022-10-18T20:53:28.460Z,0.40
2022-10-18T20:56:16.821Z,0.50
2022-10-18T20:59:02.948Z,0.50
2022-10-18T21:01:48.901Z,0.57
2022-10-18T21:04:36.642Z,0.40
2022-10-18T21:07:24.501Z,0.60
2022-10-18T21:10:10.506Z,0.90
2022-10-18T21:12:56.437Z,0.40
2022-10-18T21:15:42.453Z,0.60
2022-10-18T21:18:30.361Z,0.60
2022-10-18T21:21:23.737Z,0.60
2022-10-18T21:24:10.219Z,0.60
2022-10-18T21:26:56.210Z,0.52
2022-10-18T21:29:42.131Z,0.47
2022-10-18T21:32:28.291Z,0.50
2022-10-18T21:35:14.527Z,0.50
2022-10-18T21:38:00.675Z,0.60
2022-10-18T21:40:46.790Z,0.60
2022-10-18T21:43:32.514Z,0.38
2022-10-18T21:46:19.669Z,0.32
2022-10-18T21:49:06.418Z,0.40
2022-10-18T21:51:51.981Z,0.40
2022-10-18T21:54:37.837Z,0.40
2022-10-18T21:57:23.867Z,0.50
2022-10-18T22:00:10.251Z,0.55
2022-10-18T22:03:09.316Z,0.40
2022-10-18T22:06:04.240Z,0.50
2022-10-18T22:08:52.366Z,0.45
2022-10-18T22:11:46.566Z,0.43
2022-10-18T22:14:32.619Z,0.50
2022-10-18T22:17:18.757Z,0.52
2022-10-18T22:20:05.514Z,0.50
2022-10-18T22:22:54.063Z,0.50
2022-10-18T22:25:39.845Z,0.50
2022-10-18T22:28:25.662Z,0.30
2022-10-18T22:31:16.793Z,0.40
2022-10-18T22:34:06.077Z,0.40
2022-10-18T22:36:52.390Z,0.38
2022-10-18T22:39:38.483Z,0.50
2022-10-18T22:42:24.198Z,0.40
2022-10-18T22:45:10.390Z,0.60
2022-10-18T22:47:56.407Z,0.50
2022-10-18T22:50:42.523Z,0.40
2022-10-18T22:53:29.100Z,0.63
2022-10-18T22:56:20.625Z,0.55
2022-10-18T22:59:06.481Z,0.50
2022-10-18T23:01:52.325Z,0.50
2022-10-18T23:04:38.391Z,0.55
2022-10-18T23:07:24.146Z,0.50
2022-10-18T23:10:10.154Z,0.40
2022-10-18T23:12:55.887Z,0.50
2022-10-18T23:15:41.678Z,0.40
2022-10-18T23:18:27.663Z,0.40
2022-10-18T23:21:13.954Z,0.40
2022-10-18T23:24:00.111Z,0.38
2022-10-18T23:26:46.028Z,0.40
2022-10-18T23:29:31.945Z,0.38
2022-10-18T23:32:18.030Z,0.40
2022-10-18T23:35:05.061Z,0.40
2022-10-18T23:37:52.431Z,0.40
2022-10-18T23:40:38.567Z,0.30
2022-10-18T23:43:24.599Z,0.30
2022-10-18T23:46:10.955Z,0.40
2022-10-18T23:48:56.889Z,0.45
2022-10-18T23:51:42.826Z,0.40
2022-10-18T23:54:28.733Z,0.40
2022-10-18T23:57:14.625Z,0.45
